Time;durP1;ratioP1;P1;durP2;ratioP2;P2;SDS_P1;SDS_P2;PMS_P1;PMS_P2;Temp;Humidity;BMP_temperature;BMP_pressure;BME280_temperature;BME280_humidity;BME280_pressure;Samples;Min_cycle;Max_cycle;Signal;HPM_P1;HPM_P2
2022/05/10 00:01:25;;;;;;;12.40;5.80;;;;;12.70;98076.60;;;;110870;1251;41958;-70
2022/05/10 00:03:56;;;;;;;12.40;6.10;;;;;12.70;98081.40;;;;110939;1250;41145;-71
2022/05/10 00:06:28;;;;;;;11.70;5.40;;;;;12.70;98078.80;;;;110772;1252;41247;-71
2022/05/10 00:08:58;;;;;;;;;;;;;12.70;98073.80;;;;110936;1251;41133;-70
2022/05/10 00:11:29;;;;;;;13.90;6.30;;;;;12.60;98072.20;;;;110935;1248;41172;-71
2022/05/10 00:13:59;;;;;;;15.60;6.40;;;;;12.60;98072.40;;;;110834;1251;41603;-71
2022/05/10 00:16:38;;;;;;;10.50;5.10;;;;;12.60;98073.20;;;;110862;1250;41608;-71
2022/05/10 00:19:14;;;;;;;10.70;4.80;;;;;12.60;98070.00;;;;110923;1250;41146;-70
2022/05/10 00:21:47;;;;;;;12.50;5.00;;;;;12.60;98067.80;;;;110857;1251;41158;-72
2022/05/10 00:24:17;;;;;;;10.70;4.90;;;;;12.60;98061.60;;;;110921;1251;41143;-71
2022/05/10 00:26:49;;;;;;;10.80;5.00;;;;;12.56;98061.40;;;;111071;1250;41147;-70
2022/05/10 00:29:21;;;;;;;10.10;4.50;;;;;12.50;98058.00;;;;111029;1250;41145;-71
2022/05/10 00:31:51;;;;;;;11.00;4.70;;;;;12.50;98058.20;;;;110771;1251;41610;-71
2022/05/10 00:34:22;;;;;;;10.30;4.50;;;;;12.50;98055.00;;;;110815;1251;41801;-69
2022/05/10 00:36:52;;;;;;;10.80;5.00;;;;;12.48;98055.00;;;;110760;1252;42259;-70
2022/05/10 00:39:22;;;;;;;11.30;4.50;;;;;12.42;98059.60;;;;110717;1251;42397;-71
2022/05/10 00:42:25;;;;;;;10.80;4.60;;;;;12.40;98051.00;;;;110866;1250;41160;-71
2022/05/10 00:45:09;;;;;;;13.10;4.40;;;;;12.40;98046.60;;;;110908;1250;42251;-71
2022/05/10 00:47:57;;;;;;;11.30;4.30;;;;;12.40;98046.40;;;;110777;1251;41155;-71
2022/05/10 00:50:42;;;;;;;11.40;4.50;;;;;12.40;98044.00;;;;110838;1250;41146;-71
2022/05/10 00:53:21;;;;;;;10.30;4.50;;;;;12.40;98041.00;;;;110737;1252;42417;-70
2022/05/10 00:56:04;;;;;;;13.30;5.50;;;;;12.40;98034.60;;;;110751;1251;41789;-70
2022/05/10 00:58:54;;;;;;;12.20;5.20;;;;;12.30;98035.40;;;;110957;1251;41160;-71
2022/05/10 01:01:34;;;;;;;12.90;4.80;;;;;12.30;98035.40;;;;110769;1251;42165;-71
2022/05/10 01:04:27;;;;;;;10.50;4.70;;;;;12.20;98033.40;;;;110821;1253;41166;-70
2022/05/10 01:07:17;;;;;;;10.80;3.60;;;;;12.20;98034.60;;;;110849;1252;41603;-71
2022/05/10 01:10:06;;;;;;;10.10;4.20;;;;;12.20;98032.80;;;;110860;1250;41451;-71
2022/05/10 01:12:44;;;;;;;8.80;4.30;;;;;12.20;98031.00;;;;111160;1250;41348;-70
2022/05/10 01:15:21;;;;;;;12.70;5.60;;;;;12.14;98029.40;;;;110763;1251;41245;-71
2022/05/10 01:17:57;;;;;;;10.10;4.90;;;;;12.10;98025.20;;;;110906;1251;41150;-72
2022/05/10 01:20:50;;;;;;;10.00;4.60;;;;;12.06;98027.40;;;;110779;1251;41740;-72
2022/05/10 01:23:50;;;;;;;11.40;5.00;;;;;12.00;98028.80;;;;111153;1248;41316;-72
2022/05/10 01:27:08;;;;;;;10.80;5.20;;;;;12.00;98031.00;;;;110954;1250;41141;-72
2022/05/10 01:30:03;;;;;;;12.10;5.30;;;;;12.00;98027.80;;;;110599;1250;41144;-71
2022/05/10 01:35:54;;;;;;;12.60;6.40;;;;;12.00;98025.40;;;;110993;1250;41464;-70
2022/05/10 01:38:52;;;;;;;11.50;5.40;;;;;11.96;98029.00;;;;110872;1251;42029;-72
2022/05/10 01:41:31;;;;;;;9.80;4.20;;;;;11.98;98032.80;;;;110780;1251;41359;-72
2022/05/10 01:44:05;;;;;;;8.80;4.20;;;;;12.00;98030.60;;;;110828;1252;41157;-71
2022/05/10 01:46:38;;;;;;;8.10;3.60;;;;;12.00;98025.00;;;;110908;1251;41151;-71
2022/05/10 01:49:27;;;;;;;11.60;3.80;;;;;12.00;98027.00;;;;111014;1250;41183;-71
2022/05/10 01:52:24;;;;;;;11.80;5.40;;;;;12.00;98019.60;;;;110847;1251;41183;-71
2022/05/10 01:54:59;;;;;;;10.50;4.90;;;;;12.00;98018.80;;;;110945;1251;41168;-72
2022/05/10 01:57:31;;;;;;;12.00;5.40;;;;;12.02;98023.20;;;;110957;1251;41710;-71
2022/05/10 02:00:12;;;;;;;12.60;5.70;;;;;12.00;98020.00;;;;110993;1250;41712;-72
2022/05/10 02:02:52;;;;;;;13.90;5.40;;;;;12.00;98021.80;;;;110955;1250;41263;-72
2022/05/10 02:05:58;;;;;;;11.50;5.50;;;;;11.90;98024.80;;;;111189;1248;41700;-71
2022/05/10 02:09:06;;;;;;;12.20;5.20;;;;;11.80;98021.00;;;;111190;1247;41164;-70
2022/05/10 02:11:40;;;;;;;9.50;4.00;;;;;11.72;98019.80;;;;110892;1252;41280;-72
2022/05/10 02:14:31;;;;;;;9.80;4.50;;;;;11.74;98021.60;;;;110808;1252;41363;-71
2022/05/10 02:17:10;;;;;;;10.40;4.30;;;;;11.80;98016.40;;;;111028;1250;41784;-71
2022/05/10 02:19:59;;;;;;;10.50;4.80;;;;;11.80;98017.20;;;;111097;1250;41173;-71
2022/05/10 02:22:44;;;;;;;10.40;4.20;;;;;11.82;98017.20;;;;110994;1250;41260;-71
2022/05/10 02:25:18;;;;;;;9.30;3.90;;;;;11.90;98011.00;;;;110795;1250;41735;-72
2022/05/10 02:27:55;;;;;;;10.40;4.00;;;;;11.90;98010.20;;;;111168;1250;41541;-71
2022/05/10 02:30:29;;;;;;;9.60;3.90;;;;;11.90;98008.00;;;;111014;1248;41383;-71
2022/05/10 02:33:06;;;;;;;9.60;4.00;;;;;11.90;98009.20;;;;110877;1250;41314;-71
2022/05/10 02:35:59;;;;;;;8.50;3.60;;;;;11.90;98008.20;;;;110786;1250;41240;-71
2022/05/10 02:38:38;;;;;;;8.10;3.80;;;;;11.90;98009.20;;;;110936;1250;41514;-71
2022/05/10 02:41:20;;;;;;;9.80;4.10;;;;;11.94;98002.60;;;;110951;1250;41153;-71
2022/05/10 02:43:57;;;;;;;9.20;3.80;;;;;11.96;98004.00;;;;110846;1250;41158;-71
2022/05/10 02:46:27;;;;;;;8.50;3.70;;;;;11.96;98008.40;;;;110907;1247;41123;-71
2022/05/10 02:48:59;;;;;;;8.80;3.80;;;;;11.98;98003.80;;;;110876;1250;41154;-71
2022/05/10 02:51:28;;;;;;;9.40;3.70;;;;;12.00;98002.40;;;;111125;1249;41158;-73
2022/05/10 02:53:59;;;;;;;8.40;3.70;;;;;12.00;97997.80;;;;110778;1252;42409;-71
2022/05/10 02:56:30;;;;;;;10.50;4.20;;;;;12.00;98002.00;;;;110968;1247;41924;-70
2022/05/10 02:59:04;;;;;;;9.20;4.20;;;;;12.00;98006.80;;;;111025;1249;41187;-70
2022/05/10 03:01:55;;;;;;;10.30;4.60;;;;;12.00;98006.40;;;;111204;1248;41247;-70
2022/05/10 03:04:24;;;;;;;;;;;;;12.00;98009.00;;;;111032;1250;42108;-71
2022/05/10 03:06:53;;;;;;;9.00;4.00;;;;;12.00;98012.00;;;;110834;1249;41300;-71
2022/05/10 03:09:23;;;;;;;11.10;5.20;;;;;12.00;98012.00;;;;110789;1250;41903;-71
2022/05/10 03:11:53;;;;;;;11.70;4.90;;;;;12.00;98013.00;;;;111120;1247;41618;-71
2022/05/10 03:14:23;;;;;;;11.90;5.10;;;;;11.90;98010.40;;;;110782;1250;41707;-71
2022/05/10 03:16:52;;;;;;;9.90;4.90;;;;;11.90;98010.20;;;;110993;1249;41144;-71
2022/05/10 03:19:24;;;;;;;9.90;4.50;;;;;11.88;98008.00;;;;111102;1249;41276;-71
2022/05/10 03:21:53;;;;;;;11.80;5.40;;;;;11.90;98008.80;;;;110890;1250;42061;-71
2022/05/10 03:24:23;;;;;;;9.80;4.70;;;;;11.84;98000.00;;;;111179;1248;41536;-71
2022/05/10 03:26:52;;;;;;;9.80;4.00;;;;;11.80;98004.60;;;;111116;1248;41213;-70
2022/05/10 03:29:25;;;;;;;12.00;5.40;;;;;11.80;98007.40;;;;110986;1247;41587;-70
2022/05/10 03:31:56;;;;;;;9.30;4.10;;;;;11.80;98006.20;;;;111062;1250;41153;-71
2022/05/10 03:37:14;;;;;;;9.30;4.20;;;;;11.90;98005.80;;;;110915;1250;41155;-71
2022/05/10 03:39:43;;;;;;;10.90;4.70;;;;;11.90;98001.80;;;;110882;1250;41158;-71
2022/05/10 03:42:19;;;;;;;9.70;4.60;;;;;11.90;97998.80;;;;110986;1249;41152;-71
2022/05/10 03:44:50;;;;;;;10.10;4.60;;;;;11.90;98001.00;;;;110944;1248;41604;-73
2022/05/10 03:47:22;;;;;;;10.70;4.60;;;;;11.94;97999.60;;;;110989;1250;42187;-70
2022/05/10 03:49:54;;;;;;;11.70;4.60;;;;;11.98;98006.00;;;;111022;1250;41145;-71
2022/05/10 03:52:27;;;;;;;9.50;4.10;;;;;11.96;98001.20;;;;110936;1250;41889;-71
2022/05/10 03:54:57;;;;;;;10.60;5.20;;;;;11.90;97999.80;;;;111171;1248;41141;-71
2022/05/10 03:57:29;;;;;;;11.40;6.20;;;;;12.00;98004.00;;;;110712;1250;41185;-70
2022/05/10 03:59:58;;;;;;;16.10;7.00;;;;;12.00;98003.80;;;;111086;1248;41498;-71
2022/05/10 04:02:28;;;;;;;13.70;6.50;;;;;12.00;98002.20;;;;110851;1250;41924;-70
2022/05/10 04:04:57;;;;;;;12.00;5.80;;;;;12.00;98002.80;;;;111036;1248;41198;-70
2022/05/10 04:07:27;;;;;;;11.60;5.60;;;;;12.04;98000.40;;;;110780;1252;41550;-71
2022/05/10 04:09:56;;;;;;;9.50;5.20;;;;;12.10;97999.80;;;;111025;1250;41379;-71
2022/05/10 04:12:25;;;;;;;10.10;5.10;;;;;12.12;98003.40;;;;110894;1249;41840;-71
2022/05/10 04:14:55;;;;;;;11.40;4.30;;;;;12.20;98004.60;;;;110663;1250;41157;-71
2022/05/10 04:17:24;;;;;;;10.10;4.30;;;;;12.28;98006.20;;;;111072;1250;40732;-71
2022/05/10 04:19:53;;;;;;;8.60;3.70;;;;;12.30;98007.60;;;;110950;1250;41374;-71
2022/05/10 04:22:22;;;;;;;9.20;4.10;;;;;12.40;98007.60;;;;111051;1249;42024;-71
2022/05/10 04:25:11;;;;;;;8.90;3.90;;;;;12.50;98011.00;;;;110864;1250;41149;-70
2022/05/10 04:27:41;;;;;;;8.90;3.80;;;;;12.60;98016.20;;;;111042;1250;41246;-70
2022/05/10 04:30:10;;;;;;;10.50;3.70;;;;;12.66;98017.60;;;;110892;1250;41895;-70
2022/05/10 04:32:41;;;;;;;9.00;3.90;;;;;12.70;98017.80;;;;110994;1250;41726;-71
2022/05/10 04:35:11;;;;;;;9.40;4.00;;;;;12.80;98022.80;;;;110986;1250;41143;-70
2022/05/10 04:37:40;;;;;;;8.40;3.90;;;;;12.90;98017.00;;;;111009;1250;42077;-71
2022/05/10 04:42:58;;;;;;;10.40;4.70;;;;;13.00;98011.60;;;;111118;1248;41894;-70
2022/05/10 04:45:27;;;;;;;9.80;4.50;;;;;13.10;98010.60;;;;111095;1248;41609;-71
2022/05/10 04:47:57;;;;;;;12.20;4.90;;;;;13.20;98012.80;;;;110846;1250;41160;-71
2022/05/10 04:50:26;;;;;;;17.30;5.80;;;;;13.20;98019.40;;;;111000;1247;42172;-71
2022/05/10 04:52:56;;;;;;;9.90;4.30;;;;;13.20;98016.00;;;;111030;1250;42070;-71
2022/05/10 04:55:25;;;;;;;8.90;3.80;;;;;13.20;98013.80;;;;111119;1250;41150;-71
2022/05/10 04:57:54;;;;;;;11.30;4.60;;;;;13.30;98009.00;;;;111067;1249;41132;-71
2022/05/10 05:00:24;;;;;;;12.10;5.20;;;;;13.40;98016.20;;;;111087;1250;41170;-71
2022/05/10 05:02:53;;;;;;;12.50;4.90;;;;;13.40;98013.60;;;;110888;1250;41434;-71
2022/05/10 05:05:23;;;;;;;9.70;4.10;;;;;13.40;98018.60;;;;110982;1250;41136;-71
2022/05/10 05:07:52;;;;;;;8.70;3.80;;;;;13.40;98017.00;;;;110992;1250;41611;-71
2022/05/10 05:10:21;;;;;;;8.70;3.50;;;;;13.50;98020.00;;;;111084;1249;41200;-71
2022/05/10 05:12:50;;;;;;;7.30;3.50;;;;;13.52;98023.20;;;;110949;1250;42015;-71
2022/05/10 05:15:19;;;;;;;10.00;3.60;;;;;13.60;98018.20;;;;111015;1248;41260;-70
2022/05/10 05:17:50;;;;;;;9.10;3.70;;;;;13.70;98018.20;;;;111046;1250;40750;-70
2022/05/10 05:20:19;;;;;;;8.40;3.90;;;;;13.80;98016.80;;;;110827;1250;41145;-71
2022/05/10 05:22:49;;;;;;;8.50;3.80;;;;;13.84;98018.00;;;;110949;1250;41693;-71
2022/05/10 05:25:19;;;;;;;8.70;3.80;;;;;13.90;98020.40;;;;110945;1251;41311;-69
2022/05/10 05:27:50;;;;;;;7.70;3.50;;;;;14.00;98021.20;;;;110964;1250;41392;-70
2022/05/10 05:30:19;;;;;;;;;;;;;14.10;98019.00;;;;110999;1250;41159;-69
2022/05/10 05:32:48;;;;;;;11.10;5.50;;;;;14.12;98025.00;;;;110937;1250;41157;-69
2022/05/10 05:35:17;;;;;;;15.40;5.50;;;;;14.20;98024.60;;;;111049;1250;41127;-69
2022/05/10 05:37:46;;;;;;;12.00;5.80;;;;;14.20;98027.40;;;;111026;1251;41253;-70
2022/05/10 05:40:16;;;;;;;9.90;5.40;;;;;14.20;98026.20;;;;111123;1248;41297;-70
2022/05/10 05:42:49;;;;;;;10.30;5.40;;;;;14.20;98026.60;;;;110954;1250;41161;-70
2022/05/10 05:45:21;;;;;;;10.60;4.40;;;;;14.30;98027.60;;;;111179;1248;41148;-70
2022/05/10 05:47:52;;;;;;;8.50;4.20;;;;;14.32;98032.00;;;;111020;1249;41263;-71
2022/05/10 05:50:21;;;;;;;;;;;;;14.40;98033.00;;;;111064;1249;41414;-70
2022/05/10 05:52:59;;;;;;;9.50;4.00;;;;;14.50;98025.20;;;;111165;1248;41270;-70
2022/05/10 05:55:29;;;;;;;8.20;3.90;;;;;14.60;98026.80;;;;111004;1250;41366;-70
2022/05/10 05:57:58;;;;;;;9.30;4.80;;;;;14.70;98022.60;;;;110813;1250;41810;-70
2022/05/10 06:00:27;;;;;;;12.60;4.30;;;;;14.86;98022.00;;;;110882;1250;42870;-68
2022/05/10 06:02:56;;;;;;;9.60;4.20;;;;;15.00;98026.00;;;;110906;1250;41619;-71
2022/05/10 06:05:27;;;;;;;10.10;4.20;;;;;15.20;98022.60;;;;111031;1249;42367;-71
2022/05/10 06:07:56;;;;;;;;;;;;;15.50;98015.20;;;;111002;1250;41267;-71
2022/05/10 06:10:25;;;;;;;9.00;4.50;;;;;15.70;98019.00;;;;110925;1250;41280;-72
2022/05/10 06:12:54;;;;;;;11.20;3.80;;;;;15.80;98022.00;;;;110841;1250;41494;-71
2022/05/10 06:15:23;;;;;;;8.30;3.50;;;;;16.08;98022.20;;;;110917;1250;41124;-71
2022/05/10 06:17:58;;;;;;;8.70;3.70;;;;;16.38;98014.80;;;;110963;1250;41151;-70
2022/05/10 06:20:27;;;;;;;7.60;3.60;;;;;16.66;98011.60;;;;111027;1250;41146;-71
2022/05/10 06:22:56;;;;;;;7.60;3.70;;;;;17.00;98019.00;;;;110785;1252;41263;-70
2022/05/10 06:25:25;;;;;;;8.30;3.40;;;;;17.30;98012.00;;;;110930;1250;41149;-70
2022/05/10 06:27:55;;;;;;;10.30;4.70;;;;;17.82;98017.80;;;;111192;1248;41348;-71
2022/05/10 06:30:25;;;;;;;14.70;4.50;;;;;18.08;98010.20;;;;111091;1250;41243;-70
2022/05/10 06:33:00;;;;;;;9.50;4.50;;;;;18.62;98008.40;;;;110937;1250;41269;-70
2022/05/10 06:35:33;;;;;;;9.60;3.80;;;;;18.78;98007.00;;;;110870;1250;41326;-70
2022/05/10 06:38:27;;;;;;;16.30;3.70;;;;;19.00;98006.40;;;;110955;1250;41145;-69
2022/05/10 06:41:01;;;;;;;10.00;3.20;;;;;19.30;98007.20;;;;110849;1250;41957;-69
2022/05/10 06:43:39;;;;;;;6.10;2.60;;;;;19.56;98004.60;;;;110730;1250;42344;-69
2022/05/10 06:46:21;;;;;;;7.10;2.60;;;;;19.84;98002.00;;;;110656;1250;41200;-69
2022/05/10 06:48:50;;;;;;;5.00;2.30;;;;;20.08;98005.60;;;;111082;1250;41248;-70
2022/05/10 06:51:23;;;;;;;4.90;2.30;;;;;20.22;98004.00;;;;111184;1248;41150;-70
2022/05/10 06:53:56;;;;;;;4.80;2.30;;;;;20.40;98004.40;;;;110978;1250;41487;-70
2022/05/10 06:56:31;;;;;;;5.10;2.30;;;;;20.60;98009.00;;;;111135;1247;41182;-71
2022/05/10 06:59:01;;;;;;;5.30;2.40;;;;;20.62;98005.00;;;;111155;1247;41143;-71
2022/05/10 07:01:30;;;;;;;6.10;2.30;;;;;20.70;98002.40;;;;111152;1247;40910;-70
2022/05/10 07:04:00;;;;;;;4.80;2.10;;;;;20.80;98000.60;;;;111044;1250;41146;-70
2022/05/10 07:06:31;;;;;;;3.90;1.80;;;;;20.90;98002.20;;;;110897;1250;41665;-71
2022/05/10 07:09:00;;;;;;;4.60;2.10;;;;;21.00;97996.80;;;;111065;1247;42388;-71
2022/05/10 07:11:29;;;;;;;4.50;1.90;;;;;21.20;97998.40;;;;110914;1250;41144;-70
2022/05/10 07:13:58;;;;;;;3.80;1.90;;;;;21.34;97996.60;;;;110943;1250;41157;-72
2022/05/10 07:16:27;;;;;;;6.50;1.90;;;;;21.70;97995.00;;;;110961;1247;41987;-70
2022/05/10 07:18:57;;;;;;;4.20;1.90;;;;;22.28;97997.40;;;;111201;1249;41127;-71
2022/05/10 07:21:26;;;;;;;4.40;1.90;;;;;22.84;97987.80;;;;111033;1250;41136;-70
2022/05/10 07:23:54;;;;;;;5.20;1.90;;;;;24.04;97983.00;;;;110908;1250;41510;-71
2022/05/10 07:26:23;;;;;;;4.00;1.90;;;;;25.22;97979.20;;;;111092;1248;41945;-70
2022/05/10 07:28:52;;;;;;;6.80;2.30;;;;;26.10;97976.60;;;;110882;1250;41656;-70
2022/05/10 07:31:21;;;;;;;6.90;2.30;;;;;26.24;97970.40;;;;111062;1248;41845;-70
2022/05/10 07:33:50;;;;;;;3.70;1.80;;;;;25.46;97968.60;;;;110989;1248;41168;-70
2022/05/10 07:36:25;;;;;;;3.10;1.70;;;;;25.20;97969.60;;;;111170;1248;41152;-70
2022/05/10 07:38:54;;;;;;;3.80;1.80;;;;;25.00;97976.00;;;;110919;1250;41475;-70
2022/05/10 07:41:23;;;;;;;6.20;2.00;;;;;24.92;97980.20;;;;110924;1250;41192;-70
2022/05/10 07:43:53;;;;;;;4.90;2.10;;;;;24.88;97978.20;;;;110959;1248;41148;-70
2022/05/10 07:46:22;;;;;;;3.20;1.70;;;;;24.70;97982.20;;;;111042;1250;42368;-70
2022/05/10 07:48:52;;;;;;;6.50;2.10;;;;;24.80;97984.60;;;;110864;1250;41147;-70
2022/05/10 07:51:21;;;;;;;3.50;1.60;;;;;25.06;97983.20;;;;111210;1247;41147;-70
2022/05/10 07:53:51;;;;;;;5.20;1.80;;;;;25.68;97983.20;;;;111018;1248;42187;-71
2022/05/10 07:56:20;;;;;;;3.60;1.80;;;;;26.50;97971.00;;;;110950;1250;41159;-71
2022/05/10 07:58:56;;;;;;;4.20;1.70;;;;;27.32;97968.40;;;;111101;1250;41604;-70
2022/05/10 08:01:26;;;;;;;2.70;1.60;;;;;28.02;97962.80;;;;111076;1250;41600;-71
2022/05/10 08:03:56;;;;;;;5.50;1.70;;;;;28.02;97958.40;;;;111033;1250;41184;-71
2022/05/10 08:06:27;;;;;;;4.90;1.80;;;;;28.50;97961.00;;;;111150;1248;41243;-71
2022/05/10 08:08:56;;;;;;;4.20;1.60;;;;;28.78;97959.60;;;;111039;1250;42332;-70
2022/05/10 08:11:24;;;;;;;3.50;1.70;;;;;29.20;97955.60;;;;110768;1251;41595;-70
2022/05/10 08:13:53;;;;;;;3.00;1.50;;;;;29.36;97959.40;;;;110876;1250;40726;-70
2022/05/10 08:16:22;;;;;;;5.50;1.70;;;;;30.00;97956.40;;;;110955;1250;41650;-71
2022/05/10 08:18:51;;;;;;;3.30;1.60;;;;;30.70;97954.40;;;;111161;1247;42240;-71
2022/05/10 08:21:21;;;;;;;5.80;2.10;;;;;30.90;97949.60;;;;111133;1247;41529;-70
2022/05/10 08:23:52;;;;;;;4.50;1.90;;;;;31.00;97953.80;;;;111008;1250;41428;-70
2022/05/10 08:26:23;;;;;;;5.40;1.80;;;;;30.88;97946.00;;;;110913;1248;41131;-71
2022/05/10 08:28:52;;;;;;;3.50;1.50;;;;;31.10;97945.60;;;;111187;1249;41269;-70
2022/05/10 08:31:25;;;;;;;4.00;1.70;;;;;31.54;97941.40;;;;110949;1250;41131;-70
2022/05/10 08:33:54;;;;;;;5.20;1.70;;;;;31.68;97940.80;;;;111192;1248;41148;-70
2022/05/10 08:36:23;;;;;;;4.00;1.40;;;;;30.28;97952.80;;;;111082;1250;41931;-71
2022/05/10 08:38:54;;;;;;;3.10;1.60;;;;;29.26;97952.20;;;;111132;1247;41146;-70
2022/05/10 08:41:29;;;;;;;3.90;1.80;;;;;28.26;97955.00;;;;110940;1250;42238;-71
2022/05/10 08:44:14;;;;;;;3.60;1.60;;;;;27.92;97942.00;;;;110824;1250;40878;-71
2022/05/10 08:46:51;;;;;;;3.20;1.60;;;;;28.50;97943.00;;;;110825;1250;41256;-70
2022/05/10 08:49:41;;;;;;;2.20;1.50;;;;;28.60;97948.80;;;;111061;1250;41736;-70
2022/05/10 08:52:12;;;;;;;3.40;1.60;;;;;28.46;97946.00;;;;111075;1250;41175;-71
2022/05/10 08:54:41;;;;;;;3.20;1.60;;;;;28.44;97942.40;;;;111122;1249;41941;-70
2022/05/10 08:57:35;;;;;;;3.50;1.60;;;;;29.28;97951.40;;;;110928;1249;41271;-72
2022/05/10 09:00:08;;;;;;;5.70;2.20;;;;;28.94;97950.20;;;;111100;1250;41300;-70
2022/05/10 09:02:56;;;;;;;5.80;1.80;;;;;28.14;97950.80;;;;111136;1250;41152;-70
2022/05/10 09:05:28;;;;;;;2.60;1.60;;;;;27.80;97938.20;;;;110943;1250;42065;-70
2022/05/10 09:08:28;;;;;;;3.10;1.60;;;;;28.00;97944.20;;;;111063;1250;41575;-70
2022/05/10 09:11:04;;;;;;;5.30;2.00;;;;;27.06;97943.20;;;;110858;1250;41140;-71
2022/05/10 09:13:36;;;;;;;2.80;1.60;;;;;27.18;97939.60;;;;110872;1250;41209;-71
2022/05/10 09:16:12;;;;;;;4.30;1.50;;;;;27.32;97950.80;;;;110830;1250;41143;-70
2022/05/10 09:18:48;;;;;;;2.90;1.50;;;;;26.30;97944.60;;;;110987;1248;41172;-70
2022/05/10 09:21:27;;;;;;;2.80;1.40;;;;;26.12;97935.60;;;;111062;1250;41215;-70
2022/05/10 09:24:20;;;;;;;3.20;1.40;;;;;27.16;97938.40;;;;111095;1250;41211;-70
2022/05/10 09:26:52;;;;;;;3.70;1.50;;;;;27.64;97936.80;;;;111049;1250;41680;-70
2022/05/10 09:29:34;;;;;;;2.40;1.30;;;;;27.48;97934.00;;;;110876;1250;41445;-70
2022/05/10 09:35:17;;;;;;;3.50;1.40;;;;;27.10;97935.40;;;;110866;1250;41559;-70
2022/05/10 09:37:56;;;;;;;2.10;1.40;;;;;26.90;97932.40;;;;110913;1250;41382;-70
2022/05/10 09:40:42;;;;;;;3.70;1.50;;;;;26.74;97930.60;;;;110900;1250;41146;-71
2022/05/10 09:43:18;;;;;;;2.90;1.40;;;;;26.40;97924.20;;;;111095;1248;41123;-71
2022/05/10 09:46:04;;;;;;;4.00;1.80;;;;;26.14;97931.60;;;;110890;1250;41173;-71
2022/05/10 09:48:34;;;;;;;4.40;1.60;;;;;25.36;97930.20;;;;110943;1251;41941;-71
2022/05/10 09:51:27;;;;;;;5.10;1.90;;;;;24.96;97925.60;;;;110905;1249;41256;-71
2022/05/10 09:53:56;;;;;;;4.00;1.70;;;;;23.68;97929.60;;;;111033;1250;41254;-71
2022/05/10 09:56:34;;;;;;;2.60;1.60;;;;;23.90;97928.00;;;;110914;1251;41180;-71
2022/05/10 09:59:12;;;;;;;3.70;1.80;;;;;24.04;97918.60;;;;110635;1250;42178;-70
2022/05/10 10:01:50;;;;;;;2.80;1.50;;;;;25.02;97909.80;;;;110890;1249;41127;-72
2022/05/10 10:04:27;;;;;;;3.70;1.70;;;;;26.52;97901.20;;;;110829;1251;41058;-71
2022/05/10 10:07:06;;;;;;;2.90;1.50;;;;;27.86;97896.40;;;;110926;1250;41157;-70
2022/05/10 10:09:41;;;;;;;2.80;1.50;;;;;29.06;97891.40;;;;110907;1250;42416;-71
2022/05/10 10:12:32;;;;;;;8.70;1.80;;;;;29.78;97883.60;;;;110918;1250;41004;-70
2022/05/10 10:15:14;;;;;;;3.40;1.40;;;;;30.16;97882.60;;;;110615;1253;41164;-70
2022/05/10 10:18:33;;;;;;;4.20;1.80;;;;;30.72;97875.00;;;;110749;1253;42363;-69
2022/05/10 10:21:08;;;;;;;4.00;1.60;;;;;29.86;97869.80;;;;110867;1252;41152;-76
2022/05/10 10:23:41;;;;;;;6.80;1.60;;;;;28.32;97872.40;;;;110907;1250;42037;-70
2022/05/10 10:26:46;;;;;;;3.50;1.60;;;;;26.46;97875.80;;;;110697;1253;41453;-72
2022/05/10 10:29:26;;;;;;;4.70;1.50;;;;;25.88;97877.60;;;;110699;1253;42704;-70
2022/05/10 10:32:08;;;;;;;4.30;1.80;;;;;25.38;97865.60;;;;110664;1253;41641;-71
2022/05/10 10:34:53;;;;;;;5.70;2.00;;;;;25.98;97864.80;;;;110929;1250;41260;-70
2022/05/10 10:37:38;;;;;;;3.90;1.60;;;;;26.10;97862.80;;;;110929;1250;42826;-71
2022/05/10 10:40:30;;;;;;;2.90;1.40;;;;;26.52;97863.60;;;;110962;1250;41149;-70
2022/05/10 10:43:20;;;;;;;2.10;1.30;;;;;27.32;97864.40;;;;110848;1251;42367;-69
2022/05/10 10:46:16;;;;;;;4.10;1.80;;;;;27.98;97854.60;;;;110816;1251;41896;-71
2022/05/10 10:48:54;;;;;;;3.80;1.70;;;;;28.14;97852.60;;;;110786;1253;41157;-70
2022/05/10 10:51:30;;;;;;;3.20;1.70;;;;;28.28;97849.80;;;;110703;1252;41168;-71
2022/05/10 10:54:01;;;;;;;4.20;1.50;;;;;28.40;97845.60;;;;110703;1251;41162;-72
2022/05/10 10:57:15;;;;;;;2.50;1.60;;;;;27.62;97848.20;;;;110744;1251;41146;-71
2022/05/10 11:00:09;;;;;;;2.20;1.50;;;;;27.66;97841.00;;;;110195;1258;41181;-71
2022/05/10 11:02:55;;;;;;;3.10;1.50;;;;;27.70;97836.80;;;;110126;1258;41168;-71
2022/05/10 11:05:36;;;;;;;2.50;1.50;;;;;27.50;97839.40;;;;109941;1260;41977;-70
2022/05/10 11:08:14;;;;;;;5.40;1.70;;;;;27.44;97832.60;;;;109953;1260;42167;-71
2022/05/10 11:11:06;;;;;;;3.00;1.60;;;;;27.30;97827.20;;;;110119;1258;41300;-71
2022/05/10 11:14:09;;;;;;;6.50;1.90;;;;;27.12;97824.00;;;;109892;1258;40919;-69
2022/05/10 11:17:19;;;;;;;3.10;1.70;;;;;27.44;97822.00;;;;110028;1259;41448;-70
2022/05/10 11:20:23;;;;;;;3.50;1.50;;;;;26.78;97809.00;;;;109988;1259;41202;-70
2022/05/10 11:23:03;;;;;;;4.90;1.90;;;;;26.94;97802.80;;;;109857;1258;41158;-70
2022/05/10 11:25:59;;;;;;;2.80;1.50;;;;;28.28;97796.00;;;;110010;1258;41350;-70
2022/05/10 11:28:49;;;;;;;2.30;1.50;;;;;28.96;97797.80;;;;110160;1259;41981;-70
2022/05/10 11:31:31;;;;;;;2.50;1.50;;;;;28.16;97797.00;;;;110118;1257;41291;-70
2022/05/10 11:34:29;;;;;;;3.70;1.50;;;;;27.80;97798.80;;;;110206;1259;41141;-70
2022/05/10 11:37:01;;;;;;;4.20;1.70;;;;;27.80;97800.40;;;;110402;1253;41158;-72
2022/05/10 11:39:45;;;;;;;4.90;1.70;;;;;27.50;97802.20;;;;110874;1250;41256;-69
2022/05/10 11:42:34;;;;;;;3.10;1.50;;;;;27.20;97798.20;;;;110734;1253;42793;-71
2022/05/10 11:45:59;;;;;;;2.80;1.50;;;;;27.00;97797.20;;;;110891;1251;41613;-70
2022/05/10 11:49:07;;;;;;;2.70;1.50;;;;;27.04;97790.20;;;;110238;1259;41162;-70
2022/05/10 11:51:46;;;;;;;3.00;1.50;;;;;27.76;97789.20;;;;110211;1256;41175;-69
2022/05/10 11:54:42;;;;;;;4.70;1.70;;;;;27.70;97793.60;;;;110347;1256;41180;-71
2022/05/10 11:57:25;;;;;;;4.10;1.70;;;;;27.34;97788.20;;;;110262;1257;41168;-72
2022/05/10 12:00:27;;;;;;;3.40;1.50;;;;;26.84;97778.20;;;;110101;1259;42050;-71
2022/05/10 12:03:00;;;;;;;2.20;1.40;;;;;27.54;97774.80;;;;110400;1256;41160;-71
2022/05/10 12:05:41;;;;;;;4.00;1.70;;;;;28.60;97768.80;;;;109989;1259;41348;-71
2022/05/10 12:08:19;;;;;;;3.60;1.60;;;;;28.94;97771.20;;;;110183;1258;41172;-70
2022/05/10 12:10:48;;;;;;;3.10;1.40;;;;;29.32;97761.80;;;;110313;1257;42253;-70
2022/05/10 12:22:22;;;;;;;4.70;1.80;;;;;30.12;97743.20;;;;110145;1259;41162;-71
2022/05/10 12:24:52;;;;;;;4.00;1.70;;;;;29.76;97736.00;;;;110434;1250;41197;-69
2022/05/10 12:27:30;;;;;;;3.00;1.50;;;;;29.90;97734.60;;;;110631;1252;41148;-70
2022/05/10 12:30:00;;;;;;;1.60;1.30;;;;;29.96;97738.60;;;;110747;1252;41623;-71
2022/05/10 12:32:39;;;;;;;;;;;;;30.08;97741.80;;;;110886;1250;42803;-70
2022/05/10 12:35:30;;;;;;;3.30;1.40;;;;;29.74;97737.20;;;;110841;1250;42545;-71
2022/05/10 12:38:00;;;;;;;3.00;1.50;;;;;29.30;97737.40;;;;110883;1250;41413;-70
2022/05/10 12:40:34;;;;;;;2.70;1.50;;;;;29.28;97741.80;;;;110794;1252;42377;-70
2022/05/10 12:43:49;;;;;;;3.90;1.40;;;;;29.00;97744.00;;;;110835;1250;41137;-70
2022/05/10 12:46:47;;;;;;;4.80;1.50;;;;;28.90;97740.20;;;;110228;1259;41134;-70
2022/05/10 12:49:16;;;;;;;3.20;1.40;;;;;28.64;97733.60;;;;110038;1259;41242;-70
2022/05/10 12:52:39;;;;;;;2.20;1.40;;;;;28.40;97734.20;;;;110173;1259;41612;-70
2022/05/10 12:55:16;;;;;;;2.90;1.50;;;;;28.20;97732.80;;;;109377;1264;41179;-71
2022/05/10 12:57:58;;;;;;;4.70;1.30;;;;;28.00;97728.20;;;;109347;1264;41172;-69
2022/05/10 13:00:33;;;;;;;3.30;1.60;;;;;27.80;97725.60;;;;109407;1264;42383;-70
2022/05/10 13:03:09;;;;;;;2.40;1.40;;;;;27.50;97722.80;;;;109337;1265;41736;-71
2022/05/10 13:05:59;;;;;;;5.20;1.70;;;;;27.18;97716.00;;;;109479;1264;41173;-71
2022/05/10 13:08:46;;;;;;;4.50;2.00;;;;;25.82;97710.00;;;;109490;1264;41205;-71
2022/05/10 13:12:00;;;;;;;4.80;1.50;;;;;25.80;97706.00;;;;109538;1264;41622;-70
2022/05/10 13:14:31;;;;;;;3.20;1.40;;;;;25.46;97700.60;;;;109473;1265;41971;-70
2022/05/10 13:17:00;;;;;;;3.40;1.60;;;;;25.50;97697.40;;;;109434;1264;41705;-69